sensor_id;sensor_type;location;lat;lon;timestamp;pressure;altitude;pressure_sealevel;temperature;humidity
26083;BME280;13848;49.018;12.078;2022-11-20T00:01:06;97145.94;;;2.01;82.64
26083;BME280;13848;49.018;12.078;2022-11-20T00:03:32;97154.63;;;1.95;81.71
26083;BME280;13848;49.018;12.078;2022-11-20T00:05:59;97152.69;;;1.89;82.01
26083;BME280;13848;49.018;12.078;2022-11-20T00:08:25;97146.66;;;1.95;82.59
26083;BME280;13848;49.018;12.078;2022-11-20T00:10:51;97143.66;;;1.98;82.05
26083;BME280;13848;49.018;12.078;2022-11-20T00:13:17;97156.94;;;1.98;82.32
26083;BME280;13848;49.018;12.078;2022-11-20T00:15:44;97151.72;;;2.04;82.23
26083;BME280;13848;49.018;12.078;2022-11-20T00:18:10;97154.81;;;2.08;81.67
26083;BME280;13848;49.018;12.078;2022-11-20T00:20:36;97158.59;;;1.99;81.84
26083;BME280;13848;49.018;12.078;2022-11-20T00:23:02;97158.78;;;1.97;82.25
26083;BME280;13848;49.018;12.078;2022-11-20T00:25:28;97154.28;;;1.98;82.41
26083;BME280;13848;49.018;12.078;2022-11-20T00:27:54;97153.06;;;2.00;81.90
26083;BME280;13848;49.018;12.078;2022-11-20T00:30:20;97154.09;;;1.99;81.92
26083;BME280;13848;49.018;12.078;2022-11-20T00:32:47;97157.91;;;1.97;82.39
26083;BME280;13848;49.018;12.078;2022-11-20T00:35:13;97155.19;;;2.05;81.85
26083;BME280;13848;49.018;12.078;2022-11-20T00:37:39;97159.22;;;2.01;81.97
26083;BME280;13848;49.018;12.078;2022-11-20T00:40:06;97154.28;;;1.98;82.36
26083;BME280;13848;49.018;12.078;2022-11-20T00:42:32;97153.91;;;2.01;82.35
26083;BME280;13848;49.018;12.078;2022-11-20T00:44:58;97156.38;;;2.02;82.20
26083;BME280;13848;49.018;12.078;2022-11-20T00:47:24;97158.94;;;1.96;82.54
26083;BME280;13848;49.018;12.078;2022-11-20T00:49:51;97164.44;;;1.94;82.26
26083;BME280;13848;49.018;12.078;2022-11-20T00:52:17;97165.63;;;1.92;82.31
26083;BME280;13848;49.018;12.078;2022-11-20T00:54:43;97165.53;;;2.00;82.54
26083;BME280;13848;49.018;12.078;2022-11-20T00:57:09;97162.41;;;1.96;82.26
26083;BME280;13848;49.018;12.078;2022-11-20T00:59:35;97153.72;;;2.02;82.16
26083;BME280;13848;49.018;12.078;2022-11-20T01:02:01;97158.78;;;1.97;82.37
26083;BME280;13848;49.018;12.078;2022-11-20T01:04:27;97141.97;;;1.97;82.51
26083;BME280;13848;49.018;12.078;2022-11-20T01:06:54;97151.63;;;1.98;82.33
26083;BME280;13848;49.018;12.078;2022-11-20T01:09:20;97159.41;;;1.99;82.54
26083;BME280;13848;49.018;12.078;2022-11-20T01:11:46;97149.94;;;1.97;82.65
26083;BME280;13848;49.018;12.078;2022-11-20T01:14:13;97162.78;;;2.08;82.82
26083;BME280;13848;49.018;12.078;2022-11-20T01:16:41;97167.81;;;2.03;82.29
26083;BME280;13848;49.018;12.078;2022-11-20T01:19:10;97175.66;;;2.04;82.06
26083;BME280;13848;49.018;12.078;2022-11-20T01:21:38;97163.09;;;2.13;82.57
26083;BME280;13848;49.018;12.078;2022-11-20T01:24:08;97166.75;;;2.12;82.40
26083;BME280;13848;49.018;12.078;2022-11-20T01:26:36;97168.31;;;2.06;82.51
26083;BME280;13848;49.018;12.078;2022-11-20T01:29:03;97180.88;;;2.12;82.35
26083;BME280;13848;49.018;12.078;2022-11-20T01:31:31;97168.41;;;2.13;82.08
26083;BME280;13848;49.018;12.078;2022-11-20T01:33:59;97164.09;;;2.12;82.53
26083;BME280;13848;49.018;12.078;2022-11-20T01:36:27;97168.88;;;2.17;81.95
26083;BME280;13848;49.018;12.078;2022-11-20T01:38:55;97169.22;;;2.13;82.20
26083;BME280;13848;49.018;12.078;2022-11-20T01:41:24;97178.03;;;1.99;82.42
26083;BME280;13848;49.018;12.078;2022-11-20T01:43:50;97176.47;;;2.05;82.75
26083;BME280;13848;49.018;12.078;2022-11-20T01:46:16;97177.81;;;2.01;82.56
26083;BME280;13848;49.018;12.078;2022-11-20T01:48:47;97181.41;;;2.08;82.64
26083;BME280;13848;49.018;12.078;2022-11-20T01:51:16;97177.09;;;2.07;82.77
26083;BME280;13848;49.018;12.078;2022-11-20T01:53:43;97174.81;;;2.04;82.70
26083;BME280;13848;49.018;12.078;2022-11-20T01:56:12;97172.44;;;2.09;82.33
26083;BME280;13848;49.018;12.078;2022-11-20T01:58:43;97173.03;;;1.96;82.11
26083;BME280;13848;49.018;12.078;2022-11-20T02:01:12;97173.00;;;2.04;82.35
26083;BME280;13848;49.018;12.078;2022-11-20T02:03:38;97161.34;;;2.05;82.46
26083;BME280;13848;49.018;12.078;2022-11-20T02:06:10;97158.88;;;2.04;82.49
26083;BME280;13848;49.018;12.078;2022-11-20T02:08:37;97160.88;;;2.02;82.85
26083;BME280;13848;49.018;12.078;2022-11-20T02:11:03;97163.47;;;2.10;82.40
26083;BME280;13848;49.018;12.078;2022-11-20T02:13:29;97167.13;;;2.09;82.66
26083;BME280;13848;49.018;12.078;2022-11-20T02:15:57;97161.44;;;2.12;82.47
26083;BME280;13848;49.018;12.078;2022-11-20T02:18:23;97157.47;;;2.08;82.78
26083;BME280;13848;49.018;12.078;2022-11-20T02:20:54;97163.91;;;1.99;82.66
26083;BME280;13848;49.018;12.078;2022-11-20T02:23:29;97152.44;;;1.98;82.64
26083;BME280;13848;49.018;12.078;2022-11-20T02:26:01;97162.41;;;1.96;82.74
26083;BME280;13848;49.018;12.078;2022-11-20T02:28:29;97161.81;;;2.09;82.75
26083;BME280;13848;49.018;12.078;2022-11-20T02:30:55;97163.00;;;2.06;82.66
26083;BME280;13848;49.018;12.078;2022-11-20T02:33:21;97157.19;;;2.03;82.84
26083;BME280;13848;49.018;12.078;2022-11-20T02:35:47;97163.38;;;2.03;82.88
26083;BME280;13848;49.018;12.078;2022-11-20T02:38:14;97162.34;;;2.19;82.70
26083;BME280;13848;49.018;12.078;2022-11-20T02:40:40;97156.94;;;2.12;82.58
26083;BME280;13848;49.018;12.078;2022-11-20T02:43:08;97158.16;;;2.10;82.75
26083;BME280;13848;49.018;12.078;2022-11-20T02:45:34;97149.50;;;2.08;83.02
26083;BME280;13848;49.018;12.078;2022-11-20T02:48:00;97156.03;;;2.05;83.02
26083;BME280;13848;49.018;12.078;2022-11-20T02:50:26;97148.78;;;2.14;82.90
26083;BME280;13848;49.018;12.078;2022-11-20T02:52:52;97154.75;;;2.16;82.87
26083;BME280;13848;49.018;12.078;2022-11-20T02:55:18;97151.09;;;2.17;83.11
26083;BME280;13848;49.018;12.078;2022-11-20T02:57:44;97154.66;;;2.24;82.74
26083;BME280;13848;49.018;12.078;2022-11-20T03:00:12;97150.72;;;2.20;82.99
26083;BME280;13848;49.018;12.078;2022-11-20T03:02:38;97139.81;;;2.15;83.43
26083;BME280;13848;49.018;12.078;2022-11-20T03:05:04;97138.13;;;2.14;83.22
26083;BME280;13848;49.018;12.078;2022-11-20T03:07:30;97141.19;;;2.11;83.28
26083;BME280;13848;49.018;12.078;2022-11-20T03:09:56;97138.88;;;2.08;83.48
26083;BME280;13848;49.018;12.078;2022-11-20T03:12:22;97135.56;;;2.06;83.53
26083;BME280;13848;49.018;12.078;2022-11-20T03:14:48;97140.53;;;2.09;83.50
26083;BME280;13848;49.018;12.078;2022-11-20T03:17:16;97136.88;;;2.10;83.38
26083;BME280;13848;49.018;12.078;2022-11-20T03:19:42;97128.34;;;2.15;83.37
26083;BME280;13848;49.018;12.078;2022-11-20T03:22:08;97123.88;;;2.15;83.32
26083;BME280;13848;49.018;12.078;2022-11-20T03:24:33;97133.19;;;2.11;83.07
26083;BME280;13848;49.018;12.078;2022-11-20T03:26:59;97131.56;;;2.10;83.32
26083;BME280;13848;49.018;12.078;2022-11-20T03:29:25;97137.31;;;2.13;83.29
26083;BME280;13848;49.018;12.078;2022-11-20T03:31:51;97128.34;;;2.15;82.88
26083;BME280;13848;49.018;12.078;2022-11-20T03:34:18;97148.00;;;1.91;82.68
26083;BME280;13848;49.018;12.078;2022-11-20T03:36:44;97140.41;;;2.02;83.61
26083;BME280;13848;49.018;12.078;2022-11-20T03:39:10;97145.34;;;1.91;82.70
26083;BME280;13848;49.018;12.078;2022-11-20T03:41:38;97135.38;;;1.93;83.31
26083;BME280;13848;49.018;12.078;2022-11-20T03:44:06;97142.69;;;1.91;83.28
26083;BME280;13848;49.018;12.078;2022-11-20T03:46:33;97146.56;;;2.03;83.27
26083;BME280;13848;49.018;12.078;2022-11-20T03:48:59;97140.31;;;1.96;82.95
26083;BME280;13848;49.018;12.078;2022-11-20T03:51:28;97141.56;;;1.85;83.55
26083;BME280;13848;49.018;12.078;2022-11-20T03:53:55;97137.38;;;1.91;83.97
26083;BME280;13848;49.018;12.078;2022-11-20T03:56:23;97146.31;;;1.98;84.13
26083;BME280;13848;49.018;12.078;2022-11-20T03:58:50;97144.09;;;2.01;83.62
26083;BME280;13848;49.018;12.078;2022-11-20T04:01:18;97146.22;;;2.06;83.65
26083;BME280;13848;49.018;12.078;2022-11-20T04:03:45;97150.59;;;1.99;83.88
26083;BME280;13848;49.018;12.078;2022-11-20T04:06:13;97143.66;;;1.98;84.55
26083;BME280;13848;49.018;12.078;2022-11-20T04:08:41;97145.47;;;1.97;84.16
26083;BME280;13848;49.018;12.078;2022-11-20T04:11:09;97138.78;;;2.01;84.35
26083;BME280;13848;49.018;12.078;2022-11-20T04:13:36;97137.94;;;2.01;84.63
26083;BME280;13848;49.018;12.078;2022-11-20T04:16:05;97135.94;;;2.03;84.76
26083;BME280;13848;49.018;12.078;2022-11-20T04:18:31;97144.19;;;2.08;84.33
26083;BME280;13848;49.018;12.078;2022-11-20T04:20:57;97138.13;;;2.14;83.78
26083;BME280;13848;49.018;12.078;2022-11-20T04:23:23;97133.75;;;2.06;83.98
26083;BME280;13848;49.018;12.078;2022-11-20T04:25:51;97134.84;;;2.12;84.02
26083;BME280;13848;49.018;12.078;2022-11-20T04:28:17;97120.19;;;2.16;84.01
26083;BME280;13848;49.018;12.078;2022-11-20T04:30:42;97135.13;;;2.17;83.85
26083;BME280;13848;49.018;12.078;2022-11-20T04:33:08;97124.41;;;2.25;83.78
26083;BME280;13848;49.018;12.078;2022-11-20T04:35:35;97127.16;;;2.17;84.07
26083;BME280;13848;49.018;12.078;2022-11-20T04:38:01;97124.31;;;2.04;84.14
26083;BME280;13848;49.018;12.078;2022-11-20T04:40:27;97126.25;;;2.10;84.54
26083;BME280;13848;49.018;12.078;2022-11-20T04:42:55;97116.44;;;2.10;84.16
26083;BME280;13848;49.018;12.078;2022-11-20T04:45:21;97129.44;;;2.05;84.24
26083;BME280;13848;49.018;12.078;2022-11-20T04:47:48;97124.22;;;2.12;84.52
26083;BME280;13848;49.018;12.078;2022-11-20T04:50:14;97115.94;;;2.07;84.26
26083;BME280;13848;49.018;12.078;2022-11-20T04:52:40;97123.59;;;2.10;84.83
26083;BME280;13848;49.018;12.078;2022-11-20T04:55:07;97123.28;;;2.05;84.81
26083;BME280;13848;49.018;12.078;2022-11-20T04:57:33;97120.81;;;2.03;85.01
26083;BME280;13848;49.018;12.078;2022-11-20T05:00:00;97121.66;;;2.04;85.23
26083;BME280;13848;49.018;12.078;2022-11-20T05:02:26;97128.22;;;2.08;84.88
26083;BME280;13848;49.018;12.078;2022-11-20T05:04:52;97121.94;;;2.09;84.82
26083;BME280;13848;49.018;12.078;2022-11-20T05:07:18;97112.41;;;2.15;84.94
26083;BME280;13848;49.018;12.078;2022-11-20T05:09:44;97115.59;;;2.10;84.92
26083;BME280;13848;49.018;12.078;2022-11-20T05:12:10;97110.34;;;2.02;84.70
26083;BME280;13848;49.018;12.078;2022-11-20T05:14:36;97116.41;;;1.96;85.37
26083;BME280;13848;49.018;12.078;2022-11-20T05:17:03;97117.84;;;1.83;85.53
26083;BME280;13848;49.018;12.078;2022-11-20T05:19:29;97113.47;;;1.91;85.01
26083;BME280;13848;49.018;12.078;2022-11-20T05:21:55;97111.06;;;1.81;85.94
26083;BME280;13848;49.018;12.078;2022-11-20T05:24:21;97122.97;;;1.85;85.79
26083;BME280;13848;49.018;12.078;2022-11-20T05:26:47;97120.16;;;1.86;85.51
26083;BME280;13848;49.018;12.078;2022-11-20T05:29:13;97118.47;;;1.85;85.63
26083;BME280;13848;49.018;12.078;2022-11-20T05:31:39;97112.63;;;1.75;85.86
26083;BME280;13848;49.018;12.078;2022-11-20T05:34:07;97115.91;;;1.77;86.44
26083;BME280;13848;49.018;12.078;2022-11-20T05:36:33;97120.16;;;1.86;86.10
26083;BME280;13848;49.018;12.078;2022-11-20T05:38:59;97115.66;;;1.87;85.96
26083;BME280;13848;49.018;12.078;2022-11-20T05:41:25;97122.81;;;1.86;86.10
26083;BME280;13848;49.018;12.078;2022-11-20T05:43:51;97120.88;;;1.80;86.34
26083;BME280;13848;49.018;12.078;2022-11-20T05:46:18;97116.94;;;1.76;86.32
26083;BME280;13848;49.018;12.078;2022-11-20T05:48:46;97116.44;;;1.58;86.82
26083;BME280;13848;49.018;12.078;2022-11-20T05:51:15;97116.81;;;1.70;87.21
26083;BME280;13848;49.018;12.078;2022-11-20T05:53:42;97108.81;;;1.93;86.42
26083;BME280;13848;49.018;12.078;2022-11-20T05:56:10;97118.22;;;1.95;86.24
26083;BME280;13848;49.018;12.078;2022-11-20T05:58:37;97121.44;;;1.91;85.96
26083;BME280;13848;49.018;12.078;2022-11-20T06:01:05;97114.47;;;1.90;85.69
26083;BME280;13848;49.018;12.078;2022-11-20T06:03:31;97114.38;;;1.83;86.01
26083;BME280;13848;49.018;12.078;2022-11-20T06:05:58;97115.66;;;1.87;86.36
26083;BME280;13848;49.018;12.078;2022-11-20T06:08:25;97129.34;;;1.99;86.63
26083;BME280;13848;49.018;12.078;2022-11-20T06:10:51;97123.56;;;1.95;86.18
26083;BME280;13848;49.018;12.078;2022-11-20T06:13:17;97124.53;;;1.79;86.48
26083;BME280;13848;49.018;12.078;2022-11-20T06:15:48;97123.00;;;1.62;87.38
26083;BME280;13848;49.018;12.078;2022-11-20T06:18:14;97123.00;;;1.62;87.90
26083;BME280;13848;49.018;12.078;2022-11-20T06:20:40;97121.88;;;1.79;87.35
26083;BME280;13848;49.018;12.078;2022-11-20T06:23:06;97115.19;;;1.83;86.94
26083;BME280;13848;49.018;12.078;2022-11-20T06:25:33;97108.56;;;1.79;86.65
26083;BME280;13848;49.018;12.078;2022-11-20T06:28:02;97115.91;;;1.77;86.84
26083;BME280;13848;49.018;12.078;2022-11-20T06:30:28;97108.56;;;1.79;87.30
26083;BME280;13848;49.018;12.078;2022-11-20T06:32:54;97112.88;;;1.66;87.98
26083;BME280;13848;49.018;12.078;2022-11-20T06:35:20;97106.72;;;1.65;88.72
26083;BME280;13848;49.018;12.078;2022-11-20T06:37:46;97110.31;;;1.72;88.02
26083;BME280;13848;49.018;12.078;2022-11-20T06:40:21;97113.53;;;1.82;87.69
26083;BME280;13848;49.018;12.078;2022-11-20T06:42:48;97124.09;;;1.91;87.51
26083;BME280;13848;49.018;12.078;2022-11-20T06:45:14;97124.75;;;1.93;87.21
26083;BME280;13848;49.018;12.078;2022-11-20T06:47:40;97115.84;;;2.00;87.38
26083;BME280;13848;49.018;12.078;2022-11-20T06:50:06;97121.56;;;1.97;87.29
26083;BME280;13848;49.018;12.078;2022-11-20T06:52:32;97125.47;;;1.86;87.31
26083;BME280;13848;49.018;12.078;2022-11-20T06:54:58;97122.72;;;1.95;87.78
26083;BME280;13848;49.018;12.078;2022-11-20T06:57:24;97126.09;;;1.89;87.41
26083;BME280;13848;49.018;12.078;2022-11-20T06:59:52;97123.25;;;1.75;88.35
26083;BME280;13848;49.018;12.078;2022-11-20T07:02:17;97130.13;;;1.84;88.73
26083;BME280;13848;49.018;12.078;2022-11-20T07:04:43;97128.66;;;1.82;88.74
26083;BME280;13848;49.018;12.078;2022-11-20T07:07:09;97127.31;;;2.01;87.96
26083;BME280;13848;49.018;12.078;2022-11-20T07:09:35;97126.16;;;2.03;88.24
26083;BME280;13848;49.018;12.078;2022-11-20T07:12:01;97126.16;;;2.03;87.88
26083;BME280;13848;49.018;12.078;2022-11-20T07:14:27;97117.97;;;2.05;88.04
26083;BME280;13848;49.018;12.078;2022-11-20T07:16:54;97126.19;;;1.80;88.33
26083;BME280;13848;49.018;12.078;2022-11-20T07:19:20;97124.19;;;1.82;89.14
26083;BME280;13848;49.018;12.078;2022-11-20T07:21:46;97128.97;;;2.02;88.48
26083;BME280;13848;49.018;12.078;2022-11-20T07:24:12;97130.59;;;2.03;88.01
26083;BME280;13848;49.018;12.078;2022-11-20T07:26:38;97120.63;;;2.20;88.30
26083;BME280;13848;49.018;12.078;2022-11-20T07:29:04;97120.75;;;2.26;87.94
26083;BME280;13848;49.018;12.078;2022-11-20T07:31:30;97117.34;;;2.32;87.85
26083;BME280;13848;49.018;12.078;2022-11-20T07:33:57;97114.31;;;2.35;87.49
26083;BME280;13848;49.018;12.078;2022-11-20T07:36:23;97118.25;;;2.39;87.41
26083;BME280;13848;49.018;12.078;2022-11-20T07:38:49;97116.97;;;2.35;87.18
26083;BME280;13848;49.018;12.078;2022-11-20T07:41:15;97117.59;;;2.37;87.16
26083;BME280;13848;49.018;12.078;2022-11-20T07:43:41;97120.53;;;2.43;87.18
26083;BME280;13848;49.018;12.078;2022-11-20T07:46:07;97117.72;;;2.44;87.48
26083;BME280;13848;49.018;12.078;2022-11-20T07:48:33;97117.53;;;2.46;87.38
26083;BME280;13848;49.018;12.078;2022-11-20T07:51:01;97122.31;;;2.50;87.21
26083;BME280;13848;49.018;12.078;2022-11-20T07:53:27;97118.97;;;2.48;87.76
26083;BME280;13848;49.018;12.078;2022-11-20T07:55:53;97124.13;;;2.50;87.85
26083;BME280;13848;49.018;12.078;2022-11-20T07:58:19;97128.06;;;2.54;87.65
26083;BME280;13848;49.018;12.078;2022-11-20T08:00:45;97129.22;;;2.66;87.53
26083;BME280;13848;49.018;12.078;2022-11-20T08:03:11;97123.34;;;2.71;87.12
26083;BME280;13848;49.018;12.078;2022-11-20T08:05:37;97125.81;;;2.72;87.53
26083;BME280;13848;49.018;12.078;2022-11-20T08:08:06;97130.78;;;2.75;87.25
26083;BME280;13848;49.018;12.078;2022-11-20T08:10:32;97118.94;;;2.78;87.49
26083;BME280;13848;49.018;12.078;2022-11-20T08:12:57;97129.03;;;2.82;87.67
26083;BME280;13848;49.018;12.078;2022-11-20T08:15:23;97129.69;;;2.84;87.83
26083;BME280;13848;49.018;12.078;2022-11-20T08:17:49;97114.22;;;2.94;87.87
26083;BME280;13848;49.018;12.078;2022-11-20T08:20:15;97121.84;;;2.98;87.82
26083;BME280;13848;49.018;12.078;2022-11-20T08:22:41;97120.47;;;3.02;87.75
26083;BME280;13848;49.018;12.078;2022-11-20T08:25:08;97119.00;;;2.99;88.18
26083;BME280;13848;49.018;12.078;2022-11-20T08:27:34;97119.88;;;3.06;88.12
26083;BME280;13848;49.018;12.078;2022-11-20T08:30:00;97121.34;;;3.09;88.02
26083;BME280;13848;49.018;12.078;2022-11-20T08:32:26;97122.78;;;3.26;88.32
26083;BME280;13848;49.018;12.078;2022-11-20T08:34:52;97122.78;;;3.26;87.83
26083;BME280;13848;49.018;12.078;2022-11-20T08:37:18;97118.88;;;3.29;88.19
26083;BME280;13848;49.018;12.078;2022-11-20T08:39:44;97129.34;;;3.30;87.99
26083;BME280;13848;49.018;12.078;2022-11-20T08:42:11;97126.56;;;3.38;87.82
26083;BME280;13848;49.018;12.078;2022-11-20T08:44:37;97128.09;;;3.47;87.45
26083;BME280;13848;49.018;12.078;2022-11-20T08:47:03;97131.19;;;3.51;87.83
26083;BME280;13848;49.018;12.078;2022-11-20T08:49:29;97135.09;;;3.49;87.93
26083;BME280;13848;49.018;12.078;2022-11-20T08:51:55;97132.91;;;3.59;87.59
26083;BME280;13848;49.018;12.078;2022-11-20T08:54:21;97129.25;;;3.60;87.58
26083;BME280;13848;49.018;12.078;2022-11-20T08:56:47;97132.22;;;3.71;87.60
26083;BME280;13848;49.018;12.078;2022-11-20T08:59:14;97133.91;;;3.79;87.98
26083;BME280;13848;49.018;12.078;2022-11-20T09:01:40;97133.59;;;3.89;87.51
26083;BME280;13848;49.018;12.078;2022-11-20T09:04:06;97130.72;;;3.90;87.41
26083;BME280;13848;49.018;12.078;2022-11-20T09:06:32;97127.84;;;3.92;87.49
26083;BME280;13848;49.018;12.078;2022-11-20T09:08:58;97129.47;;;3.86;87.17
26083;BME280;13848;49.018;12.078;2022-11-20T09:11:24;97124.94;;;3.87;87.72
26083;BME280;13848;49.018;12.078;2022-11-20T09:13:50;97121.25;;;3.88;88.27
26083;BME280;13848;49.018;12.078;2022-11-20T09:16:17;97122.56;;;3.98;88.22
26083;BME280;13848;49.018;12.078;2022-11-20T09:18:43;97125.53;;;4.10;88.06
26083;BME280;13848;49.018;12.078;2022-11-20T09:21:10;97120.31;;;4.23;88.58
26083;BME280;13848;49.018;12.078;2022-11-20T09:23:37;97117.44;;;4.25;88.13
26083;BME280;13848;49.018;12.078;2022-11-20T09:26:04;97124.72;;;4.44;88.03
26083;BME280;13848;49.018;12.078;2022-11-20T09:28:31;97118.59;;;4.50;88.17
26083;BME280;13848;49.018;12.078;2022-11-20T09:30:57;97116.66;;;4.72;88.36
26083;BME280;13848;49.018;12.078;2022-11-20T09:33:24;97118.69;;;5.25;87.76
26083;BME280;13848;49.018;12.078;2022-11-20T09:35:50;97123.72;;;5.94;87.67
26083;BME280;13848;49.018;12.078;2022-11-20T09:38:16;97111.88;;;7.19;88.02
26083;BME280;13848;49.018;12.078;2022-11-20T09:40:46;97106.22;;;6.96;84.47
26083;BME280;13848;49.018;12.078;2022-11-20T09:43:18;97114.91;;;6.85;82.85
26083;BME280;13848;49.018;12.078;2022-11-20T09:45:56;97114.41;;;6.43;82.76
26083;BME280;13848;49.018;12.078;2022-11-20T09:48:36;97118.75;;;6.31;82.37
26083;BME280;13848;49.018;12.078;2022-11-20T09:51:13;97125.97;;;5.84;83.43
26083;BME280;13848;49.018;12.078;2022-11-20T09:53:48;97137.69;;;5.70;83.79
26083;BME280;13848;49.018;12.078;2022-11-20T09:56:20;97129.81;;;5.35;84.07
26083;BME280;13848;49.018;12.078;2022-11-20T09:58:49;97130.19;;;5.25;84.96
26083;BME280;13848;49.018;12.078;2022-11-20T10:01:17;97126.47;;;5.20;86.34
26083;BME280;13848;49.018;12.078;2022-11-20T10:03:55;97126.47;;;5.20;85.97
26083;BME280;13848;49.018;12.078;2022-11-20T10:06:29;97131.00;;;5.19;85.69
26083;BME280;13848;49.018;12.078;2022-11-20T10:09:02;97123.19;;;5.18;85.83
26083;BME280;13848;49.018;12.078;2022-11-20T10:11:38;97124.19;;;5.10;86.19
26083;BME280;13848;49.018;12.078;2022-11-20T10:14:18;97117.38;;;4.94;86.34
26083;BME280;13848;49.018;12.078;2022-11-20T10:16:54;97117.63;;;5.06;86.71
26083;BME280;13848;49.018;12.078;2022-11-20T10:19:33;97110.66;;;5.25;85.80
26083;BME280;13848;49.018;12.078;2022-11-20T10:22:09;97106.34;;;5.24;85.67
26083;BME280;13848;49.018;12.078;2022-11-20T10:24:47;97105.94;;;5.27;86.13
26083;BME280;13848;49.018;12.078;2022-11-20T10:30:18;97104.72;;;5.29;85.10
26083;BME280;13848;49.018;12.078;2022-11-20T10:32:46;97108.41;;;5.28;85.83
26083;BME280;13848;49.018;12.078;2022-11-20T10:35:21;97108.81;;;5.19;86.58
26083;BME280;13848;49.018;12.078;2022-11-20T10:37:51;97096.84;;;5.15;86.06
26083;BME280;13848;49.018;12.078;2022-11-20T10:40:29;97104.47;;;5.11;86.42
26083;BME280;13848;49.018;12.078;2022-11-20T10:43:01;97094.84;;;5.17;86.08
26083;BME280;13848;49.018;12.078;2022-11-20T10:45:41;97094.03;;;5.23;85.26
26083;BME280;13848;49.018;12.078;2022-11-20T10:48:12;97100.97;;;5.11;86.84
26083;BME280;13848;49.018;12.078;2022-11-20T10:50:57;97096.25;;;5.13;87.15
26083;BME280;13848;49.018;12.078;2022-11-20T10:53:38;97097.88;;;5.07;86.42
26083;BME280;13848;49.018;12.078;2022-11-20T10:56:16;97091.94;;;5.12;86.86
26083;BME280;13848;49.018;12.078;2022-11-20T10:58:49;97094.59;;;5.12;86.46
26083;BME280;13848;49.018;12.078;2022-11-20T11:01:19;97082.06;;;5.12;87.39
26083;BME280;13848;49.018;12.078;2022-11-20T11:03:46;97091.34;;;5.23;86.19
26083;BME280;13848;49.018;12.078;2022-11-20T11:06:19;97083.28;;;5.10;86.19
26083;BME280;13848;49.018;12.078;2022-11-20T11:08:48;97086.16;;;5.08;87.50
26083;BME280;13848;49.018;12.078;2022-11-20T11:11:22;97083.69;;;5.06;87.46
26083;BME280;13848;49.018;12.078;2022-11-20T11:13:48;97088.44;;;5.04;87.05
26083;BME280;13848;49.018;12.078;2022-11-20T11:16:20;97085.13;;;5.09;86.97
26083;BME280;13848;49.018;12.078;2022-11-20T11:18:46;97079.78;;;5.09;87.49
26083;BME280;13848;49.018;12.078;2022-11-20T11:21:21;97077.97;;;5.16;87.42
26083;BME280;13848;49.018;12.078;2022-11-20T11:23:58;97075.53;;;5.28;86.50
26083;BME280;13848;49.018;12.078;2022-11-20T11:26:24;97074.06;;;5.19;87.20
26083;BME280;13848;49.018;12.078;2022-11-20T11:28:57;97061.53;;;5.26;87.12
26083;BME280;13848;49.018;12.078;2022-11-20T11:31:25;97070.56;;;5.18;87.19
26083;BME280;13848;49.018;12.078;2022-11-20T11:33:52;97072.41;;;5.18;87.20
26083;BME280;13848;49.018;12.078;2022-11-20T11:36:21;97067.69;;;5.26;87.12
26083;BME280;13848;49.018;12.078;2022-11-20T11:38:51;97075.72;;;5.26;87.22
26083;BME280;13848;49.018;12.078;2022-11-20T11:41:21;97063.81;;;5.22;86.85
26083;BME280;13848;49.018;12.078;2022-11-20T11:43:52;97077.56;;;5.26;86.91
26083;BME280;13848;49.018;12.078;2022-11-20T11:46:27;97062.34;;;5.26;87.30
26083;BME280;13848;49.018;12.078;2022-11-20T11:48:56;97066.88;;;5.26;86.55
26083;BME280;13848;49.018;12.078;2022-11-20T11:51:26;97063.59;;;5.24;87.00
26083;BME280;13848;49.018;12.078;2022-11-20T11:53:53;97060.94;;;5.30;86.79
26083;BME280;13848;49.018;12.078;2022-11-20T11:56:20;97057.00;;;5.33;87.54
26083;BME280;13848;49.018;12.078;2022-11-20T11:58:48;97058.91;;;5.46;86.68
26083;BME280;13848;49.018;12.078;2022-11-20T12:01:26;97052.09;;;5.43;87.08
26083;BME280;13848;49.018;12.078;2022-11-20T12:04:00;97050.22;;;5.37;87.46
26083;BME280;13848;49.018;12.078;2022-11-20T12:06:32;97050.84;;;5.39;87.18
26083;BME280;13848;49.018;12.078;2022-11-20T12:09:03;97053.94;;;5.43;86.90
26083;BME280;13848;49.018;12.078;2022-11-20T12:11:34;97049.03;;;5.46;87.65
26083;BME280;13848;49.018;12.078;2022-11-20T12:14:03;97045.53;;;5.52;86.78
26083;BME280;13848;49.018;12.078;2022-11-20T12:16:35;97054.38;;;5.59;86.80
26083;BME280;13848;49.018;12.078;2022-11-20T12:19:02;97049.22;;;5.58;86.69
26083;BME280;13848;49.018;12.078;2022-11-20T12:21:43;97043.88;;;5.51;87.11
26083;BME280;13848;49.018;12.078;2022-11-20T12:24:21;97038.31;;;5.53;86.98
26083;BME280;13848;49.018;12.078;2022-11-20T12:27:02;97037.28;;;5.60;86.13
26083;BME280;13848;49.018;12.078;2022-11-20T12:29:38;97041.59;;;5.68;87.20
26083;BME280;13848;49.018;12.078;2022-11-20T12:32:26;97038.91;;;5.68;86.66
26083;BME280;13848;49.018;12.078;2022-11-20T12:35:02;97034.84;;;5.52;87.07
26083;BME280;13848;49.018;12.078;2022-11-20T12:37:38;97029.50;;;5.46;86.30
26083;BME280;13848;49.018;12.078;2022-11-20T12:40:17;97033.38;;;5.50;87.27
26083;BME280;13848;49.018;12.078;2022-11-20T12:42:55;97032.75;;;5.61;87.18
26083;BME280;13848;49.018;12.078;2022-11-20T12:45:45;97035.88;;;5.58;85.66
26083;BME280;13848;49.018;12.078;2022-11-20T12:51:44;97027.00;;;5.64;86.49
26083;BME280;13848;49.018;12.078;2022-11-20T12:54:36;97033.56;;;5.61;86.36
26083;BME280;13848;49.018;12.078;2022-11-20T12:57:11;97026.59;;;5.60;87.22
26083;BME280;13848;49.018;12.078;2022-11-20T12:59:57;97028.44;;;5.67;86.87
26083;BME280;13848;49.018;12.078;2022-11-20T13:02:32;97026.19;;;5.64;86.98
26083;BME280;13848;49.018;12.078;2022-11-20T13:05:13;97030.28;;;5.66;86.77
26083;BME280;13848;49.018;12.078;2022-11-20T13:07:43;97029.69;;;5.64;86.59
26083;BME280;13848;49.018;12.078;2022-11-20T13:10:18;97024.94;;;5.66;86.93
26083;BME280;13848;49.018;12.078;2022-11-20T13:12:50;97024.31;;;5.71;86.34